createdAt,value
2018-08-31T00:01:14.456Z,101002.88
2018-08-31T00:04:28.039Z,100992.83
2018-08-31T00:09:18.777Z,100992.11
2018-08-31T00:12:56.214Z,100993.58
2018-08-31T00:15:27.476Z,101003.30
2018-08-31T00:17:56.489Z,100999.39
2018-08-31T00:20:25.174Z,101001.03
2018-08-31T00:22:53.981Z,101000.86
2018-08-31T00:26:12.831Z,100996.04
2018-08-31T00:28:57.958Z,100990.81
2018-08-31T00:33:55.138Z,100991.69
2018-08-31T00:40:42.185Z,100989.64
2018-08-31T00:43:24.132Z,100995.47
2018-08-31T00:45:54.161Z,100998.30
2018-08-31T00:48:26.741Z,100995.98
2018-08-31T00:50:55.610Z,100991.50
2018-08-31T00:53:24.224Z,101003.13
2018-08-31T00:55:52.916Z,100995.99
2018-08-31T00:58:22.068Z,100996.48
2018-08-31T01:00:52.929Z,100993.22
2018-08-31T01:03:21.554Z,100995.65
2018-08-31T01:05:50.535Z,100992.75
2018-08-31T01:08:33.525Z,100992.39
2018-08-31T01:11:02.712Z,100992.87
2018-08-31T01:13:31.529Z,100986.59
2018-08-31T01:16:00.129Z,100995.20
2018-08-31T01:18:30.302Z,100992.53
2018-08-31T01:20:59.939Z,100986.37
2018-08-31T01:23:28.722Z,100991.55
2018-08-31T01:25:57.913Z,100992.40
2018-08-31T01:28:26.678Z,100981.15
2018-08-31T01:30:55.374Z,100977.36
2018-08-31T01:33:25.170Z,100973.52
2018-08-31T01:35:53.943Z,100975.81
2018-08-31T01:38:23.996Z,100981.38
2018-08-31T01:40:53.087Z,100978.23
2018-08-31T01:43:21.800Z,100973.77
2018-08-31T01:45:50.592Z,100967.83
2018-08-31T01:48:19.735Z,100962.25
2018-08-31T01:50:53.528Z,100964.18
2018-08-31T01:53:28.568Z,100964.58
2018-08-31T01:56:08.592Z,100965.40
2018-08-31T01:58:37.188Z,100958.48
2018-08-31T02:01:05.920Z,100954.97
2018-08-31T02:03:34.625Z,100955.56
2018-08-31T02:06:05.742Z,100950.62
2018-08-31T02:08:34.869Z,100952.80
2018-08-31T02:11:03.544Z,100957.77
2018-08-31T02:13:34.171Z,100959.95
2018-08-31T02:16:04.148Z,100948.45
2018-08-31T02:18:35.261Z,100949.79
2018-08-31T02:21:04.923Z,100944.81
2018-08-31T02:23:38.740Z,100938.76
2018-08-31T02:26:07.560Z,100943.48
2018-08-31T02:28:36.270Z,100945.89
2018-08-31T02:31:06.067Z,100941.55
2018-08-31T02:33:35.624Z,100940.47
2018-08-31T02:36:04.923Z,100937.67
2018-08-31T02:38:33.790Z,100934.88
2018-08-31T02:41:02.724Z,100935.02
2018-08-31T02:43:32.484Z,100939.98
2018-08-31T02:46:01.458Z,100940.93
2018-08-31T02:48:30.395Z,100934.52
2018-08-31T02:50:59.023Z,100934.51
2018-08-31T02:53:29.201Z,100933.42
2018-08-31T02:55:57.848Z,100925.95
2018-08-31T02:58:26.673Z,100919.05
2018-08-31T03:00:56.052Z,100923.04
2018-08-31T03:03:24.918Z,100922.16
2018-08-31T03:05:53.599Z,100921.45
2018-08-31T03:08:22.553Z,100914.89
2018-08-31T03:10:51.457Z,100917.93
2018-08-31T03:13:26.575Z,100919.03
2018-08-31T03:15:55.200Z,100922.05
2018-08-31T03:18:25.329Z,100923.60
2018-08-31T03:20:54.289Z,100919.87
2018-08-31T03:23:22.968Z,100914.80
2018-08-31T03:25:51.612Z,100911.50
2018-08-31T03:28:20.701Z,100914.89
2018-08-31T03:30:55.160Z,100915.63
2018-08-31T03:33:23.888Z,100917.55
2018-08-31T03:35:56.389Z,100917.77
2018-08-31T03:38:25.109Z,100922.08
2018-08-31T03:40:54.040Z,100926.48
2018-08-31T03:43:22.680Z,100923.73
2018-08-31T03:45:51.361Z,100921.42
2018-08-31T03:48:20.979Z,100922.27
2018-08-31T03:50:49.807Z,100926.87
2018-08-31T03:53:19.930Z,100930.60
2018-08-31T03:55:51.353Z,100936.91
2018-08-31T03:58:20.065Z,100928.07
2018-08-31T04:00:49.018Z,100924.87
2018-08-31T04:03:18.511Z,100923.19
2018-08-31T04:05:47.221Z,100924.27
2018-08-31T04:08:15.828Z,100918.95
2018-08-31T04:10:44.522Z,100926.29
2018-08-31T04:13:13.792Z,100920.50
2018-08-31T04:15:42.493Z,100927.02
2018-08-31T04:18:11.256Z,100919.16
2018-08-31T04:20:40.261Z,100927.62
2018-08-31T04:23:09.011Z,100921.09
2018-08-31T04:25:37.742Z,100920.63
2018-08-31T04:28:06.934Z,100928.81
2018-08-31T04:30:35.620Z,100915.30
2018-08-31T04:33:04.325Z,100925.47
2018-08-31T04:35:34.140Z,100929.80
2018-08-31T04:38:06.372Z,100928.90
2018-08-31T04:40:35.214Z,100928.43
2018-08-31T04:43:05.190Z,100932.08
2018-08-31T04:45:33.827Z,100936.91
2018-08-31T04:48:09.181Z,100946.81
2018-08-31T04:50:39.058Z,100947.84
2018-08-31T04:53:08.427Z,100945.09
2018-08-31T04:55:42.792Z,100942.53
2018-08-31T04:58:11.861Z,100952.20
2018-08-31T05:00:40.508Z,100945.31
2018-08-31T05:03:09.210Z,100949.30
2018-08-31T05:05:38.569Z,100945.44
2018-08-31T05:08:07.414Z,100946.66
2018-08-31T05:10:36.049Z,100949.70
2018-08-31T05:13:05.035Z,100942.23
2018-08-31T05:15:39.297Z,100941.77
2018-08-31T05:18:07.955Z,100945.75
2018-08-31T05:20:37.749Z,100936.45
2018-08-31T05:23:06.814Z,100944.56
2018-08-31T05:25:38.731Z,100940.05
2018-08-31T05:28:07.835Z,100937.44
2018-08-31T05:30:40.511Z,100948.08
2018-08-31T05:33:09.184Z,100942.41
2018-08-31T05:35:38.435Z,100948.33
2018-08-31T05:38:07.267Z,100949.19
2018-08-31T05:40:42.404Z,100955.59
2018-08-31T05:43:17.361Z,100951.41
2018-08-31T05:45:50.780Z,100958.41
2018-08-31T05:48:19.927Z,100955.75
2018-08-31T05:50:49.154Z,100960.47
2018-08-31T05:53:19.147Z,100957.72
2018-08-31T05:55:53.073Z,100963.51
2018-08-31T05:58:36.401Z,100965.91
2018-08-31T06:01:05.326Z,100965.06
2018-08-31T06:03:34.729Z,100962.18
2018-08-31T06:06:04.059Z,100957.81
2018-08-31T06:08:37.638Z,100959.52
2018-08-31T06:11:07.188Z,100956.98
2018-08-31T06:13:36.423Z,100958.31
2018-08-31T06:16:05.742Z,100948.75
2018-08-31T06:18:45.744Z,100954.86
2018-08-31T06:21:15.647Z,100953.59
2018-08-31T06:23:44.428Z,100956.22
2018-08-31T06:26:13.333Z,100952.48
2018-08-31T06:28:42.034Z,100958.31
2018-08-31T06:31:10.900Z,100959.52
2018-08-31T06:33:47.348Z,100961.70
2018-08-31T06:36:16.124Z,100960.88
2018-08-31T06:38:45.296Z,100968.39
2018-08-31T06:41:14.235Z,100970.42
2018-08-31T06:43:44.392Z,100980.59
2018-08-31T06:46:18.207Z,100985.66
2018-08-31T06:48:47.121Z,100984.36
2018-08-31T06:51:17.475Z,100990.41
2018-08-31T06:53:46.143Z,100987.27
2018-08-31T06:56:15.297Z,100982.33
2018-08-31T07:01:23.983Z,100963.20
2018-08-31T07:03:52.723Z,100958.00
2018-08-31T07:06:21.368Z,100954.36
2018-08-31T07:08:49.958Z,100960.28
2018-08-31T07:11:18.876Z,100958.73
2018-08-31T07:13:47.854Z,100960.55
2018-08-31T07:16:21.986Z,100954.95
2018-08-31T07:21:30.308Z,100951.38
2018-08-31T07:23:59.576Z,100951.80
2018-08-31T07:26:28.620Z,100954.87
2018-08-31T07:28:59.016Z,100951.69
2018-08-31T07:31:27.713Z,100950.55
2018-08-31T07:33:56.715Z,100951.41
2018-08-31T07:36:25.411Z,100949.56
2018-08-31T07:38:53.984Z,100948.61
2018-08-31T07:41:22.907Z,100949.22
2018-08-31T07:43:51.663Z,100946.66
2018-08-31T07:46:20.301Z,100941.66
2018-08-31T07:48:48.978Z,100945.95
2018-08-31T07:51:28.576Z,100950.77
2018-08-31T07:53:57.337Z,100957.67
2018-08-31T07:56:26.246Z,100955.05
2018-08-31T07:58:54.837Z,100956.84
2018-08-31T08:01:29.758Z,100955.09
2018-08-31T08:03:58.740Z,100950.56
2018-08-31T08:06:30.932Z,100952.47
2018-08-31T08:08:59.659Z,100952.61
2018-08-31T08:11:28.725Z,100956.47
2018-08-31T08:13:57.442Z,100954.80
2018-08-31T08:16:26.082Z,100953.66
2018-08-31T08:18:55.127Z,100952.61
2018-08-31T08:21:23.908Z,100951.76
2018-08-31T08:23:53.019Z,100951.18
2018-08-31T08:26:25.960Z,100958.71
2018-08-31T08:28:54.733Z,100954.95
2018-08-31T08:31:26.638Z,100958.34
2018-08-31T08:33:55.601Z,100961.58
2018-08-31T08:36:24.387Z,100962.05
2018-08-31T08:38:53.189Z,100965.66
2018-08-31T08:41:21.866Z,100964.80
2018-08-31T08:43:50.552Z,100974.95
2018-08-31T08:46:20.246Z,100973.67
2018-08-31T08:48:49.130Z,100981.48
2018-08-31T08:51:17.991Z,100976.94
2018-08-31T08:53:46.724Z,100980.78
2018-08-31T08:56:16.175Z,100980.22
2018-08-31T08:58:45.166Z,100979.43
2018-08-31T09:01:13.805Z,100973.38
2018-08-31T09:03:42.452Z,100969.23
2018-08-31T09:06:13.190Z,100974.12
2018-08-31T09:08:41.808Z,100974.11
2018-08-31T09:11:10.478Z,100969.48
2018-08-31T09:13:39.368Z,100969.79
2018-08-31T09:16:08.110Z,100960.73
2018-08-31T09:18:36.887Z,100962.81
2018-08-31T09:21:05.918Z,100962.22
2018-08-31T09:23:34.568Z,100963.03
2018-08-31T09:26:05.633Z,100968.68
2018-08-31T09:28:40.186Z,100969.63
2018-08-31T09:31:12.852Z,100969.64
2018-08-31T09:33:43.056Z,100971.11
2018-08-31T09:36:12.831Z,100964.81
2018-08-31T09:38:41.654Z,100963.44
2018-08-31T09:41:10.411Z,100962.14
2018-08-31T09:43:39.382Z,100966.30
2018-08-31T09:46:08.041Z,100960.73
2018-08-31T09:48:36.742Z,100957.16
2018-08-31T09:51:08.399Z,100954.39
2018-08-31T09:53:37.157Z,100958.20
2018-08-31T09:56:05.870Z,100954.83
2018-08-31T09:58:40.587Z,100958.93
2018-08-31T10:01:14.518Z,100957.53
2018-08-31T10:03:43.361Z,100963.10
2018-08-31T10:06:12.837Z,100957.00
2018-08-31T10:08:41.526Z,100957.85
2018-08-31T10:11:10.483Z,100960.12
2018-08-31T10:13:39.199Z,100958.14
2018-08-31T10:16:13.309Z,100959.41
2018-08-31T10:18:42.301Z,100953.66
2018-08-31T10:21:10.992Z,100949.73
2018-08-31T10:23:44.715Z,100945.97
2018-08-31T10:26:13.819Z,100951.63
2018-08-31T10:28:42.464Z,100950.98
2018-08-31T10:31:22.106Z,100952.50
2018-08-31T10:33:51.049Z,100945.84
2018-08-31T10:36:19.678Z,100935.60
2018-08-31T10:38:48.317Z,100934.50
2018-08-31T10:41:17.296Z,100936.95
2018-08-31T10:43:45.987Z,100930.38
2018-08-31T10:46:14.726Z,100934.01
2018-08-31T10:48:43.707Z,100931.09
2018-08-31T10:51:12.302Z,100934.53
2018-08-31T10:53:41.017Z,100928.06
2018-08-31T10:56:09.970Z,100926.47
2018-08-31T10:58:38.663Z,100929.52
2018-08-31T11:01:07.341Z,100929.41
2018-08-31T11:03:36.298Z,100929.36
2018-08-31T11:06:05.952Z,100927.19
2018-08-31T11:08:39.910Z,100925.85
2018-08-31T11:11:08.889Z,100922.03
2018-08-31T11:13:37.732Z,100912.89
2018-08-31T11:16:12.293Z,100914.06
2018-08-31T11:18:41.251Z,100916.66
2018-08-31T11:21:09.897Z,100916.62
2018-08-31T11:23:38.618Z,100915.76
2018-08-31T11:26:07.693Z,100918.85
2018-08-31T11:28:36.338Z,100925.11
2018-08-31T11:31:04.963Z,100923.53
2018-08-31T11:33:38.309Z,100921.80
2018-08-31T11:36:07.089Z,100915.41
2018-08-31T11:38:35.735Z,100924.44
2018-08-31T11:41:04.356Z,100923.56
2018-08-31T11:43:34.365Z,100921.83
2018-08-31T11:46:05.103Z,100925.80
2018-08-31T11:48:35.405Z,100921.62
2018-08-31T11:51:04.165Z,100925.73
2018-08-31T11:53:33.562Z,100922.84
2018-08-31T11:56:04.076Z,100928.25
2018-08-31T11:58:32.902Z,100916.09
2018-08-31T12:01:01.970Z,100917.64
2018-08-31T12:03:30.643Z,100918.55
2018-08-31T12:05:59.270Z,100918.38
2018-08-31T12:08:28.282Z,100915.28
2018-08-31T12:11:00.469Z,100920.09
2018-08-31T12:13:29.097Z,100919.18
2018-08-31T12:15:58.307Z,100922.35
2018-08-31T12:18:27.032Z,100919.13
2018-08-31T12:20:56.167Z,100924.03
2018-08-31T12:23:25.060Z,100924.86
2018-08-31T12:25:53.754Z,100922.20
2018-08-31T12:28:22.392Z,100920.37
2018-08-31T12:30:51.389Z,100916.66
2018-08-31T12:33:20.096Z,100918.62
2018-08-31T12:35:48.762Z,100914.85
2018-08-31T12:38:17.794Z,100915.32
2018-08-31T12:40:46.511Z,100917.78
2018-08-31T12:43:15.183Z,100922.47
2018-08-31T12:45:44.153Z,100923.27
2018-08-31T12:48:12.790Z,100914.89
2018-08-31T12:50:41.419Z,100922.29
2018-08-31T12:53:10.341Z,100915.28
2018-08-31T12:56:09.170Z,100919.87
2018-08-31T12:58:38.185Z,100914.59
2018-08-31T13:01:06.851Z,100914.88
2018-08-31T13:03:35.846Z,100919.47
2018-08-31T13:06:10.096Z,100919.02
2018-08-31T13:08:38.752Z,100908.05
2018-08-31T13:11:12.184Z,100908.30
2018-08-31T13:13:41.109Z,100905.81
2018-08-31T13:16:09.819Z,100909.81
2018-08-31T13:18:38.607Z,100915.48
2018-08-31T13:21:08.103Z,100913.89
2018-08-31T13:23:36.945Z,100913.64
2018-08-31T13:26:05.721Z,100902.58
2018-08-31T13:28:34.660Z,100906.17
2018-08-31T13:31:03.417Z,100898.16
2018-08-31T13:33:32.193Z,100906.34
2018-08-31T13:36:01.134Z,100899.92
2018-08-31T13:38:29.952Z,100901.89
2018-08-31T13:40:58.805Z,100908.28
2018-08-31T13:43:27.786Z,100907.61
2018-08-31T13:45:56.509Z,100905.70
2018-08-31T13:48:25.152Z,100909.09
2018-08-31T13:50:55.113Z,100897.16
2018-08-31T13:53:29.342Z,100905.11
2018-08-31T13:55:58.027Z,100900.19
2018-08-31T13:58:27.798Z,100898.45
2018-08-31T14:00:56.351Z,100891.13
2018-08-31T14:03:24.977Z,100889.25
2018-08-31T14:05:53.923Z,100896.02
2018-08-31T14:08:22.564Z,100897.54
2018-08-31T14:10:51.281Z,100891.45
2018-08-31T14:13:20.404Z,100888.89
2018-08-31T14:15:49.116Z,100888.55
2018-08-31T14:18:18.731Z,100885.92
2018-08-31T14:20:47.716Z,100891.63
2018-08-31T14:23:21.752Z,100899.20
2018-08-31T14:25:50.498Z,100897.19
2018-08-31T14:28:20.101Z,100895.76
2018-08-31T14:30:48.822Z,100900.16
2018-08-31T14:33:17.460Z,100897.83
2018-08-31T14:35:46.503Z,100897.19
2018-08-31T14:38:15.579Z,100896.34
2018-08-31T14:40:44.326Z,100886.73
2018-08-31T14:43:13.506Z,100888.08
2018-08-31T14:45:42.172Z,100889.43
2018-08-31T14:48:15.296Z,100891.13
2018-08-31T14:50:44.633Z,100882.38
2018-08-31T14:53:13.477Z,100878.16
2018-08-31T14:55:42.241Z,100883.91
2018-08-31T14:58:13.695Z,100889.08
2018-08-31T15:00:42.394Z,100887.37
2018-08-31T15:03:11.257Z,100888.05
2018-08-31T15:05:40.564Z,100890.05
2018-08-31T15:08:09.428Z,100885.16
2018-08-31T15:10:38.937Z,100886.67
2018-08-31T15:13:07.912Z,100885.63
2018-08-31T15:15:36.542Z,100880.41
2018-08-31T15:18:05.967Z,100883.22
2018-08-31T15:20:38.595Z,100887.67
2018-08-31T15:23:07.222Z,100888.98
2018-08-31T15:25:41.606Z,100886.92
2018-08-31T15:28:10.323Z,100887.28
2018-08-31T15:30:39.684Z,100895.56
2018-08-31T15:33:09.398Z,100899.73
2018-08-31T15:35:38.143Z,100894.52
2018-08-31T15:38:06.986Z,100897.83
2018-08-31T15:40:36.894Z,100901.63
2018-08-31T15:43:05.573Z,100899.57
2018-08-31T15:45:36.887Z,100898.45
2018-08-31T15:48:07.048Z,100897.80
2018-08-31T15:50:35.955Z,100901.30
2018-08-31T15:53:04.542Z,100906.12
2018-08-31T15:55:35.940Z,100906.33
2018-08-31T15:58:05.509Z,100908.28
2018-08-31T16:00:34.806Z,100899.94
2018-08-31T16:03:04.384Z,100900.27
2018-08-31T16:05:33.014Z,100904.70
2018-08-31T16:08:01.860Z,100897.53
2018-08-31T16:10:31.796Z,100894.87
2018-08-31T16:13:00.434Z,100898.29
2018-08-31T16:15:29.003Z,100903.27
2018-08-31T16:17:59.700Z,100908.21
2018-08-31T16:20:28.433Z,100911.59
2018-08-31T16:23:00.170Z,100913.33
2018-08-31T16:25:29.162Z,100917.64
2018-08-31T16:27:57.858Z,100914.52
2018-08-31T16:30:26.534Z,100916.72
2018-08-31T16:32:56.149Z,100923.07
2018-08-31T16:35:35.445Z,100920.33
2018-08-31T16:38:05.199Z,100917.77
2018-08-31T16:40:34.986Z,100918.69
2018-08-31T16:43:14.458Z,100920.25
2018-08-31T16:45:43.465Z,100926.24
2018-08-31T16:48:12.148Z,100930.33
2018-08-31T16:50:41.664Z,100932.62
2018-08-31T16:53:11.608Z,100929.55
2018-08-31T16:55:40.466Z,100932.22
2018-08-31T16:58:09.083Z,100932.48
2018-08-31T17:00:38.028Z,100939.07
2018-08-31T17:03:08.487Z,100930.12
2018-08-31T17:05:37.279Z,100940.33
2018-08-31T17:08:06.942Z,100938.82
2018-08-31T17:10:35.710Z,100943.08
2018-08-31T17:13:04.396Z,100939.36
2018-08-31T17:15:33.949Z,100943.23
2018-08-31T17:18:03.911Z,100944.48
2018-08-31T17:20:43.663Z,100947.20
2018-08-31T17:23:13.135Z,100944.04
2018-08-31T17:28:21.150Z,100955.23
2018-08-31T17:30:59.140Z,100957.56
2018-08-31T17:33:32.930Z,100949.50
2018-08-31T17:36:06.866Z,100958.34
2018-08-31T17:38:35.516Z,100960.91
2018-08-31T17:43:44.315Z,100961.88
2018-08-31T17:46:12.991Z,100967.44
2018-08-31T17:48:41.577Z,100967.62
2018-08-31T17:51:11.635Z,100968.11
2018-08-31T17:53:40.564Z,100966.02
2018-08-31T17:56:20.083Z,100967.53
2018-08-31T17:58:49.792Z,100971.73
2018-08-31T18:01:20.218Z,100967.02
2018-08-31T18:03:48.888Z,100972.96
2018-08-31T18:06:25.412Z,100976.11
2018-08-31T18:08:54.071Z,100979.74
2018-08-31T18:11:23.655Z,100988.84
2018-08-31T18:13:52.682Z,100989.18
2018-08-31T18:16:21.471Z,100998.22
2018-08-31T18:18:50.705Z,101001.48
2018-08-31T18:21:19.855Z,101006.68
2018-08-31T18:23:49.540Z,101006.16
2018-08-31T18:26:18.379Z,101016.25
2018-08-31T18:28:53.101Z,101018.20
2018-08-31T18:31:21.888Z,101024.73
2018-08-31T18:33:50.640Z,101028.85
2018-08-31T18:36:19.637Z,101033.45
2018-08-31T18:38:48.541Z,101036.38
2018-08-31T18:41:22.794Z,101038.75
2018-08-31T18:43:58.406Z,101044.78
2018-08-31T18:46:27.151Z,101044.07
2018-08-31T18:48:58.980Z,101049.70
2018-08-31T18:51:27.692Z,101050.04
2018-08-31T18:53:59.541Z,101052.36
2018-08-31T18:56:28.665Z,101049.80
2018-08-31T18:58:57.340Z,101055.50
2018-08-31T19:01:25.991Z,101063.98
2018-08-31T19:03:55.967Z,101063.86
2018-08-31T19:06:24.592Z,101063.34
2018-08-31T19:08:53.205Z,101063.95
2018-08-31T19:11:22.298Z,101066.75
2018-08-31T19:13:53.260Z,101065.70
2018-08-31T19:16:21.853Z,101072.47
2018-08-31T19:18:51.029Z,101074.05
2018-08-31T19:21:19.714Z,101071.00
2018-08-31T19:23:48.363Z,101072.92
2018-08-31T19:26:19.033Z,101072.58
2018-08-31T19:28:47.806Z,101080.47
2018-08-31T19:31:16.697Z,101074.75
2018-08-31T19:33:45.823Z,101075.59
2018-08-31T19:36:14.512Z,101073.98
2018-08-31T19:38:43.236Z,101079.10
2018-08-31T19:41:12.446Z,101077.81
2018-08-31T19:43:41.256Z,101075.88
2018-08-31T19:46:09.897Z,101078.32
2018-08-31T19:48:39.131Z,101089.34
2018-08-31T19:51:07.800Z,101080.16
2018-08-31T19:53:36.609Z,101086.21
2018-08-31T19:56:06.039Z,101084.34
2018-08-31T19:58:40.642Z,101082.74
2018-08-31T20:01:09.386Z,101082.09
2018-08-31T20:03:47.088Z,101078.92
2018-08-31T20:06:15.806Z,101089.41
2018-08-31T20:08:44.969Z,101088.84
2018-08-31T20:11:13.727Z,101097.26
2018-08-31T20:13:42.470Z,101097.98
2018-08-31T20:16:11.996Z,101103.32
2018-08-31T20:18:41.042Z,101106.23
2018-08-31T20:21:09.664Z,101108.64
2018-08-31T20:23:38.670Z,101113.09
2018-08-31T20:26:12.821Z,101117.48
2018-08-31T20:28:41.519Z,101118.97
2018-08-31T20:31:13.983Z,101120.09
2018-08-31T20:33:43.322Z,101119.55
2018-08-31T20:36:12.257Z,101118.20
2018-08-31T20:38:40.906Z,101125.80
2018-08-31T20:41:09.453Z,101122.36
2018-08-31T20:43:38.168Z,101119.50
2018-08-31T20:46:06.830Z,101120.49
2018-08-31T20:48:35.785Z,101119.01
2018-08-31T20:51:05.453Z,101119.90
2018-08-31T20:53:34.144Z,101121.41
2018-08-31T20:56:07.893Z,101122.48
2018-08-31T20:58:36.664Z,101113.45
2018-08-31T21:01:05.435Z,101125.47
2018-08-31T21:03:34.419Z,101126.61
2018-08-31T21:06:03.470Z,101124.34
2018-08-31T21:08:33.251Z,101125.94
2018-08-31T21:11:02.138Z,101125.28
2018-08-31T21:13:30.927Z,101121.73
2018-08-31T21:15:59.597Z,101122.69
2018-08-31T21:18:28.581Z,101124.45
2018-08-31T21:20:57.246Z,101120.69
2018-08-31T21:23:25.915Z,101121.87
2018-08-31T21:25:56.152Z,101113.30
2018-08-31T21:28:24.757Z,101115.95
2018-08-31T21:30:53.372Z,101116.23
2018-08-31T21:33:22.385Z,101125.20
2018-08-31T21:35:50.992Z,101118.56
2018-08-31T21:38:25.096Z,101116.41
2018-08-31T21:40:53.739Z,101115.95
2018-08-31T21:43:22.343Z,101114.39
2018-08-31T21:45:51.046Z,101115.34
2018-08-31T21:48:20.025Z,101114.48
2018-08-31T21:50:48.726Z,101113.89
2018-08-31T21:53:17.441Z,101117.88
2018-08-31T21:55:46.455Z,101114.27
2018-08-31T21:58:15.105Z,101119.25
2018-08-31T22:00:44.473Z,101107.39
2018-08-31T22:03:16.215Z,101120.45
2018-08-31T22:05:48.832Z,101117.06
2018-08-31T22:08:18.435Z,101122.98
2018-08-31T22:13:27.760Z,101121.91
2018-08-31T22:15:56.810Z,101124.67
2018-08-31T22:18:25.493Z,101121.66
2018-08-31T22:20:54.244Z,101122.60
2018-08-31T22:23:23.147Z,101120.28
2018-08-31T22:25:51.849Z,101119.41
2018-08-31T22:28:20.529Z,101113.02
2018-08-31T22:30:50.048Z,101118.34
2018-08-31T22:33:19.127Z,101118.81
2018-08-31T22:38:30.247Z,101120.83
2018-08-31T22:41:00.285Z,101122.75
2018-08-31T22:43:34.350Z,101122.23
2018-08-31T22:46:05.085Z,101118.34
2018-08-31T22:48:33.830Z,101126.56
2018-08-31T22:51:02.638Z,101122.98
2018-08-31T22:53:31.337Z,101123.76
2018-08-31T22:56:04.838Z,101122.41
2018-08-31T22:58:33.830Z,101128.55
2018-08-31T23:01:02.631Z,101132.73
2018-08-31T23:03:31.328Z,101124.31
2018-08-31T23:06:06.049Z,101125.63
2018-08-31T23:08:36.334Z,101124.41
2018-08-31T23:11:05.214Z,101125.63
2018-08-31T23:13:35.755Z,101127.07
2018-08-31T23:16:06.075Z,101128.34
2018-08-31T23:18:34.745Z,101128.28
2018-08-31T23:21:05.927Z,101134.77
2018-08-31T23:23:39.806Z,101133.91
2018-08-31T23:26:09.729Z,101133.06
2018-08-31T23:28:41.731Z,101139.08
2018-08-31T23:31:11.832Z,101138.70
2018-08-31T23:33:40.494Z,101132.20
2018-08-31T23:36:13.351Z,101128.28
2018-08-31T23:38:41.980Z,101133.59
2018-08-31T23:41:13.082Z,101123.70
2018-08-31T23:43:42.243Z,101133.00
2018-08-31T23:46:17.216Z,101122.38
2018-08-31T23:48:45.933Z,101122.46
2018-08-31T23:51:16.839Z,101124.17
2018-08-31T23:53:45.606Z,101125.63
2018-08-31T23:56:19.236Z,101131.29
2018-08-31T23:58:47.871Z,101129.69
